PWSweather.com
Personal Weather Stations
Station Observations

YeovilGB

Lat: 50.949, Lon: -2.627

Elevation: 70

Station Type: Vantage Pro

http://www.yeovil-weather.me.uk/

High Low Average
Temperature 72.5°F22.5°C 57.1°F13.9°C 62.1°F16.7°C
Dew Point 64.0°F17.8°C 56.2°F13.4°C 59.7°F15.4°C
Winds 6.9 mph 11.1 kmh Calm Calm 1.0 mph SW1.6 kmh SW
Wind Gusts 10.4 mph16.7 kmh -- 2.0 mph3.2 kmh
Humidity 98% 72% 92%
Pressure 30.11 in1019.6 mb 30.00 in1015.9 mb -
Precipitation 0.07 in1.8 mm - -
Hour Temp Dew Point Humidity Winds Wind Gusts Pressure Precip Precip Rate Daily Precip Total
12:00 AM 58.9°F14.9°C 57.8°F14.3°C 96% Calm Calm -- 30.01 in1016.3 mb - 0.00 in0.0 mm 0.00 in0.0 mm
12:10 AM 58.9°F14.9°C 57.7°F14.3°C 96% Calm Calm -- 30.01 in1016.3 mb - 0.00 in0.0 mm 0.00 in0.0 mm
12:20 AM 58.8°F14.9°C 57.7°F14.3°C 96% Calm Calm -- 30.00 in1015.9 mb - 0.00 in0.0 mm 0.00 in0.0 mm
12:30 AM 58.8°F14.9°C 57.7°F14.3°C 96% Calm Calm -- 30.00 in1015.9 mb - 0.00 in0.0 mm 0.00 in0.0 mm
12:40 AM 58.8°F14.9°C 57.7°F14.3°C 96% Calm Calm -- 30.00 in1015.9 mb - 0.00 in0.0 mm 0.00 in0.0 mm
12:50 AM 58.8°F14.9°C 57.7°F14.3°C 96% Calm Calm -- 30.00 in1015.9 mb - 0.00 in0.0 mm 0.00 in0.0 mm
01:00 AM 58.9°F14.9°C 57.8°F14.3°C 96% Calm Calm -- 30.00 in1015.9 mb - 0.00 in0.0 mm 0.00 in0.0 mm
01:10 AM 59.0°F15.0°C 57.9°F14.4°C 96% Calm Calm -- 30.00 in1015.9 mb - 0.00 in0.0 mm 0.00 in0.0 mm
01:20 AM 58.9°F14.9°C 57.8°F14.3°C 96% Calm Calm -- 30.00 in1015.9 mb - 0.00 in0.0 mm 0.00 in0.0 mm
01:30 AM 58.9°F14.9°C 57.8°F14.3°C 96% Calm Calm -- 30.00 in1015.9 mb - 0.00 in0.0 mm 0.00 in0.0 mm
01:40 AM 59.0°F15.0°C 57.8°F14.3°C 96% Calm Calm -- 30.00 in1015.9 mb - 0.00 in0.0 mm 0.00 in0.0 mm
01:50 AM 58.9°F14.9°C 57.8°F14.3°C 96% Calm Calm -- 30.00 in1015.9 mb - 0.00 in0.0 mm 0.00 in0.0 mm
02:00 AM 58.9°F14.9°C 58.0°F14.4°C 97% Calm Calm -- 30.00 in1015.9 mb - 0.00 in0.0 mm 0.00 in0.0 mm
02:10 AM 58.7°F14.8°C 57.9°F14.4°C 97% 1.2 mph SW1.9 kmh SW 3.5 mph5.6 kmh 30.01 in1016.3 mb - 0.00 in0.0 mm 0.00 in0.0 mm
02:20 AM 58.5°F14.7°C 57.4°F14.1°C 96% Calm Calm -- 30.01 in1016.3 mb - 0.00 in0.0 mm 0.00 in0.0 mm
02:30 AM 58.2°F14.6°C 57.1°F13.9°C 96% Calm Calm -- 30.01 in1016.3 mb - 0.00 in0.0 mm 0.00 in0.0 mm
02:40 AM 58.1°F14.5°C 57.3°F14.1°C 97% Calm Calm -- 30.01 in1016.3 mb - 0.00 in0.0 mm 0.00 in0.0 mm
02:50 AM 57.9°F14.4°C 57.1°F13.9°C 97% Calm Calm -- 30.01 in1016.3 mb - 0.00 in0.0 mm 0.00 in0.0 mm
03:00 AM 57.9°F14.4°C 57.0°F13.9°C 97% Calm Calm -- 30.01 in1016.3 mb - 0.00 in0.0 mm 0.00 in0.0 mm
03:10 AM 57.8°F14.3°C 57.0°F13.9°C 97% Calm Calm -- 30.01 in1016.3 mb - 0.00 in0.0 mm 0.00 in0.0 mm
03:20 AM 57.7°F14.3°C 56.9°F13.8°C 97% Calm Calm -- 30.01 in1016.3 mb - 0.00 in0.0 mm 0.00 in0.0 mm
03:30 AM 57.6°F14.2°C 56.8°F13.8°C 97% Calm Calm -- 30.01 in1016.3 mb - 0.00 in0.0 mm 0.00 in0.0 mm
03:40 AM 57.7°F14.3°C 56.9°F13.8°C 97% Calm Calm -- 30.01 in1016.3 mb - 0.00 in0.0 mm 0.00 in0.0 mm
03:50 AM 57.7°F14.3°C 56.9°F13.8°C 97% 2.3 mph SSW3.7 kmh SSW 3.5 mph5.6 kmh 30.01 in1016.3 mb - 0.00 in0.0 mm 0.00 in0.0 mm
04:00 AM 57.5°F14.2°C 56.7°F13.7°C 97% 1.2 mph SSW1.9 kmh SSW 3.5 mph5.6 kmh 30.02 in1016.6 mb - 0.00 in0.0 mm 0.00 in0.0 mm
04:10 AM 57.3°F14.1°C 56.5°F13.6°C 97% Calm Calm 1.2 mph1.9 kmh 30.02 in1016.6 mb - 0.00 in0.0 mm 0.00 in0.0 mm
04:20 AM 57.1°F13.9°C 56.3°F13.5°C 97% Calm Calm -- 30.02 in1016.6 mb - 0.00 in0.0 mm 0.00 in0.0 mm
04:30 AM 57.1°F13.9°C 56.3°F13.5°C 97% Calm Calm -- 30.03 in1016.9 mb - 0.00 in0.0 mm 0.00 in0.0 mm
04:40 AM 57.1°F13.9°C 56.3°F13.5°C 97% Calm Calm -- 30.03 in1016.9 mb - 0.00 in0.0 mm 0.00 in0.0 mm
04:50 AM 57.1°F13.9°C 56.2°F13.4°C 97% Calm Calm -- 30.03 in1016.9 mb - 0.00 in0.0 mm 0.00 in0.0 mm
05:00 AM 57.2°F14.0°C 56.4°F13.6°C 97% Calm Calm -- 30.03 in1016.9 mb - 0.00 in0.0 mm 0.00 in0.0 mm
05:10 AM 57.2°F14.0°C 56.4°F13.6°C 97% Calm Calm -- 30.03 in1016.9 mb - 0.00 in0.0 mm 0.00 in0.0 mm
05:20 AM 57.2°F14.0°C 56.4°F13.6°C 97% Calm Calm -- 30.03 in1016.9 mb - 0.00 in0.0 mm 0.00 in0.0 mm
05:30 AM 57.4°F14.1°C 56.6°F13.7°C 97% Calm Calm -- 30.03 in1016.9 mb - 0.00 in0.0 mm 0.00 in0.0 mm
05:40 AM 57.6°F14.2°C 57.1°F13.9°C 98% Calm Calm -- 30.03 in1016.9 mb - 0.00 in0.0 mm 0.00 in0.0 mm
05:50 AM 57.8°F14.3°C 57.0°F13.9°C 97% Calm Calm -- 30.03 in1016.9 mb - 0.00 in0.0 mm 0.00 in0.0 mm
06:00 AM 58.1°F14.5°C 57.2°F14.0°C 97% Calm Calm -- 30.03 in1016.9 mb - 0.00 in0.0 mm 0.00 in0.0 mm
06:10 AM 58.2°F14.6°C 57.4°F14.1°C 97% Calm Calm -- 30.03 in1016.9 mb - 0.00 in0.0 mm 0.00 in0.0 mm
06:20 AM 58.6°F14.8°C 58.0°F14.4°C 98% Calm Calm -- 30.03 in1016.9 mb - 0.00 in0.0 mm 0.00 in0.0 mm
06:30 AM 58.9°F14.9°C 58.0°F14.4°C 97% Calm Calm -- 30.03 in1016.9 mb - 0.00 in0.0 mm 0.00 in0.0 mm
06:40 AM 58.9°F14.9°C 58.3°F14.6°C 98% Calm Calm -- 30.03 in1016.9 mb - 0.00 in0.0 mm 0.00 in0.0 mm
06:50 AM 59.2°F15.1°C 58.6°F14.8°C 98% Calm Calm -- 30.03 in1016.9 mb - 0.00 in0.0 mm 0.00 in0.0 mm
07:00 AM 59.7°F15.4°C 59.1°F15.1°C 98% Calm Calm -- 30.03 in1016.9 mb - 0.00 in0.0 mm 0.00 in0.0 mm
07:10 AM 59.8°F15.4°C 59.2°F15.1°C 98% Calm Calm -- 30.04 in1017.3 mb - 0.00 in0.0 mm 0.00 in0.0 mm
07:20 AM 59.9°F15.5°C 59.1°F15.1°C 97% Calm Calm -- 30.04 in1017.3 mb - 0.00 in0.0 mm 0.00 in0.0 mm
07:30 AM 60.1°F15.6°C 59.3°F15.2°C 97% Calm Calm -- 30.04 in1017.3 mb - 0.00 in0.0 mm 0.00 in0.0 mm
07:40 AM 60.4°F15.8°C 59.8°F15.4°C 98% Calm Calm -- 30.04 in1017.3 mb - 0.00 in0.0 mm 0.00 in0.0 mm
07:50 AM 60.7°F15.9°C 60.1°F15.6°C 98% 1.2 mph SSW1.9 kmh SSW 4.6 mph7.4 kmh 30.05 in1017.6 mb - 0.00 in0.0 mm 0.00 in0.0 mm
08:00 AM 60.7°F15.9°C 59.8°F15.4°C 97% Calm Calm 1.2 mph1.9 kmh 30.05 in1017.6 mb - 0.00 in0.0 mm 0.00 in0.0 mm
08:10 AM 60.9°F16.1°C 60.1°F15.6°C 97% Calm Calm -- 30.05 in1017.6 mb - 0.00 in0.0 mm 0.00 in0.0 mm
08:20 AM 61.4°F16.3°C 60.5°F15.8°C 97% Calm Calm -- 30.05 in1017.6 mb - 0.00 in0.0 mm 0.00 in0.0 mm
08:30 AM 62.0°F16.7°C 61.1°F16.2°C 97% Calm Calm 1.2 mph1.9 kmh 30.05 in1017.6 mb - 0.00 in0.0 mm 0.00 in0.0 mm
08:40 AM 62.2°F16.8°C 61.0°F16.1°C 96% Calm Calm -- 30.05 in1017.6 mb - 0.00 in0.0 mm 0.00 in0.0 mm
08:50 AM 62.5°F16.9°C 61.4°F16.3°C 96% Calm Calm -- 30.05 in1017.6 mb - 0.00 in0.0 mm 0.00 in0.0 mm
09:00 AM 62.9°F17.2°C 61.1°F16.2°C 94% Calm Calm -- 30.06 in1017.9 mb - 0.00 in0.0 mm 0.00 in0.0 mm
09:10 AM 63.2°F17.3°C 61.1°F16.2°C 93% Calm Calm -- 30.06 in1017.9 mb - 0.00 in0.0 mm 0.00 in0.0 mm
09:20 AM 63.6°F17.6°C 61.5°F16.4°C 93% Calm Calm -- 30.06 in1017.9 mb - 0.00 in0.0 mm 0.00 in0.0 mm
09:30 AM 63.9°F17.7°C 61.5°F16.4°C 92% Calm Calm -- 30.06 in1017.9 mb - 0.00 in0.0 mm 0.00 in0.0 mm
09:40 AM 64.1°F17.8°C 61.4°F16.3°C 91% Calm Calm 1.2 mph1.9 kmh 30.07 in1018.3 mb - 0.00 in0.0 mm 0.00 in0.0 mm
09:50 AM 64.3°F17.9°C 61.3°F16.3°C 90% Calm Calm 3.5 mph5.6 kmh 30.07 in1018.3 mb - 0.00 in0.0 mm 0.00 in0.0 mm
10:00 AM 64.6°F18.1°C 61.6°F16.4°C 90% Calm Calm -- 30.07 in1018.3 mb - 0.00 in0.0 mm 0.00 in0.0 mm
10:10 AM 64.9°F18.3°C 61.6°F16.4°C 89% Calm Calm 2.3 mph3.7 kmh 30.07 in1018.3 mb - 0.00 in0.0 mm 0.00 in0.0 mm
10:20 AM 65.7°F18.7°C 62.1°F16.7°C 88% 1.2 mph S1.9 kmh S -- 30.06 in1017.9 mb - 0.00 in0.0 mm 0.00 in0.0 mm
10:30 AM 66.5°F19.2°C 61.9°F16.6°C 85% Calm Calm 1.2 mph1.9 kmh 30.06 in1017.9 mb - 0.00 in0.0 mm 0.00 in0.0 mm
10:40 AM 67.2°F19.6°C 61.9°F16.6°C 83% 3.5 mph S5.6 kmh S 4.6 mph7.4 kmh 30.06 in1017.9 mb - 0.00 in0.0 mm 0.00 in0.0 mm
10:50 AM 67.7°F19.8°C 62.0°F16.7°C 82% Calm Calm 1.2 mph1.9 kmh 30.06 in1017.9 mb - 0.00 in0.0 mm 0.00 in0.0 mm
11:00 AM 68.2°F20.1°C 62.1°F16.7°C 81% Calm Calm -- 30.06 in1017.9 mb - 0.00 in0.0 mm 0.00 in0.0 mm
11:10 AM 68.1°F20.1°C 61.7°F16.5°C 80% 2.3 mph WSW3.7 kmh WSW 5.8 mph9.3 kmh 30.07 in1018.3 mb - 0.00 in0.0 mm 0.00 in0.0 mm
11:20 AM 68.1°F20.1°C 62.7°F17.1°C 83% 3.5 mph NW5.6 kmh NW 3.5 mph5.6 kmh 30.07 in1018.3 mb - 0.00 in0.0 mm 0.00 in0.0 mm
11:30 AM 68.0°F20.0°C 62.6°F17.0°C 83% 2.3 mph NW3.7 kmh NW 4.6 mph7.4 kmh 30.07 in1018.3 mb - 0.00 in0.0 mm 0.00 in0.0 mm
11:40 AM 67.9°F19.9°C 62.5°F16.9°C 83% Calm Calm 2.3 mph3.7 kmh 30.07 in1018.3 mb - 0.00 in0.0 mm 0.00 in0.0 mm
11:50 AM 68.0°F20.0°C 62.6°F17.0°C 83% Calm Calm -- 30.06 in1017.9 mb - 0.00 in0.0 mm 0.00 in0.0 mm
12:00 PM 68.1°F20.1°C 62.4°F16.9°C 82% Calm Calm -- 30.06 in1017.9 mb - 0.00 in0.0 mm 0.00 in0.0 mm
12:10 PM 68.8°F20.4°C 62.7°F17.1°C 81% Calm Calm 2.3 mph3.7 kmh 30.06 in1017.9 mb - 0.00 in0.0 mm 0.00 in0.0 mm
12:20 PM 69.6°F20.9°C 63.2°F17.3°C 80% Calm Calm 2.3 mph3.7 kmh 30.06 in1017.9 mb - 0.00 in0.0 mm 0.00 in0.0 mm
12:30 PM 70.1°F21.2°C 64.0°F17.8°C 81% 1.2 mph S1.9 kmh S 4.6 mph7.4 kmh 30.06 in1017.9 mb - 0.00 in0.0 mm 0.00 in0.0 mm
12:40 PM 71.1°F21.7°C 63.1°F17.3°C 76% 1.2 mph SSE1.9 kmh SSE 2.3 mph3.7 kmh 30.06 in1017.9 mb - 0.00 in0.0 mm 0.00 in0.0 mm
12:50 PM 71.6°F22.0°C 62.5°F16.9°C 73% Calm Calm 1.2 mph1.9 kmh 30.06 in1017.9 mb - 0.00 in0.0 mm 0.00 in0.0 mm
01:00 PM 72.1°F22.3°C 62.6°F17.0°C 72% 1.2 mph ESE1.9 kmh ESE 4.6 mph7.4 kmh 30.06 in1017.9 mb - 0.00 in0.0 mm 0.00 in0.0 mm
01:10 PM 72.5°F22.5°C 63.0°F17.2°C 72% 1.2 mph SSE1.9 kmh SSE 5.8 mph9.3 kmh 30.06 in1017.9 mb - 0.00 in0.0 mm 0.00 in0.0 mm
01:20 PM 72.0°F22.2°C 62.5°F16.9°C 72% 1.2 mph SE1.9 kmh SE 5.8 mph9.3 kmh 30.06 in1017.9 mb - 0.00 in0.0 mm 0.00 in0.0 mm
01:30 PM 71.7°F22.1°C 62.9°F17.2°C 74% 2.3 mph S3.7 kmh S 6.9 mph11.1 kmh 30.06 in1017.9 mb - 0.01 in0.3 mm 0.01 in0.3 mm
01:40 PM 69.9°F21.1°C 62.4°F16.9°C 77% 6.9 mph SSW11.1 kmh SSW 8.1 mph13.0 kmh 30.06 in1017.9 mb - 0.00 in0.0 mm 0.01 in0.3 mm
01:50 PM 68.0°F20.0°C 61.6°F16.4°C 80% 6.9 mph SW11.1 kmh SW 10.4 mph16.7 kmh 30.07 in1018.3 mb - 0.00 in0.0 mm 0.01 in0.3 mm
02:00 PM 66.8°F19.3°C 62.1°F16.7°C 85% 5.8 mph SW9.3 kmh SW 8.1 mph13.0 kmh 30.07 in1018.3 mb - 0.00 in0.0 mm 0.01 in0.3 mm
02:10 PM 66.1°F18.9°C 61.8°F16.6°C 86% 5.8 mph SW9.3 kmh SW 9.2 mph14.8 kmh 30.07 in1018.3 mb - 0.00 in0.0 mm 0.01 in0.3 mm
02:20 PM 65.7°F18.7°C 61.7°F16.5°C 87% 3.5 mph SW5.6 kmh SW 6.9 mph11.1 kmh 30.07 in1018.3 mb - 0.00 in0.0 mm 0.01 in0.3 mm
02:30 PM 65.3°F18.5°C 61.7°F16.5°C 88% 3.5 mph SSW5.6 kmh SSW 6.9 mph11.1 kmh 30.08 in1018.6 mb - 0.00 in0.0 mm 0.01 in0.3 mm
02:40 PM 65.3°F18.5°C 61.7°F16.5°C 88% 2.3 mph SW3.7 kmh SW 6.9 mph11.1 kmh 30.07 in1018.3 mb - 0.00 in0.0 mm 0.01 in0.3 mm
02:50 PM 64.9°F18.3°C 60.9°F16.1°C 87% 2.3 mph SSW3.7 kmh SSW 2.3 mph3.7 kmh 30.07 in1018.3 mb - 0.00 in0.0 mm 0.01 in0.3 mm
03:00 PM 64.7°F18.2°C 61.4°F16.3°C 89% 2.3 mph SW3.7 kmh SW 3.5 mph5.6 kmh 30.08 in1018.6 mb - 0.01 in0.3 mm 0.02 in0.5 mm
03:10 PM 64.6°F18.1°C 61.6°F16.4°C 90% 3.5 mph SSW5.6 kmh SSW 8.1 mph13.0 kmh 30.08 in1018.6 mb - 0.01 in0.3 mm 0.02 in0.5 mm
03:20 PM 64.4°F18.0°C 61.8°F16.6°C 91% 4.6 mph S7.4 kmh S 5.8 mph9.3 kmh 30.08 in1018.6 mb - 0.00 in0.0 mm 0.02 in0.5 mm
03:30 PM 64.4°F18.0°C 62.0°F16.7°C 92% 1.2 mph S1.9 kmh S 4.6 mph7.4 kmh 30.08 in1018.6 mb - 0.00 in0.0 mm 0.02 in0.5 mm
03:40 PM 64.3°F17.9°C 61.6°F16.4°C 91% 1.2 mph S1.9 kmh S 3.5 mph5.6 kmh 30.08 in1018.6 mb - 0.00 in0.0 mm 0.02 in0.5 mm
03:50 PM 64.2°F17.9°C 61.5°F16.4°C 91% 1.2 mph SSW1.9 kmh SSW 3.5 mph5.6 kmh 30.08 in1018.6 mb - 0.00 in0.0 mm 0.02 in0.5 mm
04:00 PM 64.1°F17.8°C 61.4°F16.3°C 91% 2.3 mph S3.7 kmh S 4.6 mph7.4 kmh 30.08 in1018.6 mb - 0.02 in0.5 mm 0.04 in1.0 mm
04:10 PM 64.2°F17.9°C 61.8°F16.6°C 92% 4.6 mph SW7.4 kmh SW 6.9 mph11.1 kmh 30.08 in1018.6 mb - 0.00 in0.0 mm 0.04 in1.0 mm
04:20 PM 63.9°F17.7°C 61.3°F16.3°C 91% 5.8 mph SW9.3 kmh SW 10.4 mph16.7 kmh 30.08 in1018.6 mb - 0.01 in0.3 mm 0.05 in1.3 mm
04:30 PM 63.7°F17.6°C 61.3°F16.3°C 92% 2.3 mph SSW3.7 kmh SSW 5.8 mph9.3 kmh 30.08 in1018.6 mb - 0.00 in0.0 mm 0.05 in1.3 mm
04:40 PM 63.7°F17.6°C 61.3°F16.3°C 92% 3.5 mph SW5.6 kmh SW 5.8 mph9.3 kmh 30.08 in1018.6 mb - 0.00 in0.0 mm 0.05 in1.3 mm
04:50 PM 63.8°F17.7°C 61.7°F16.5°C 93% 2.3 mph SSW3.7 kmh SSW 4.6 mph7.4 kmh 30.08 in1018.6 mb - 0.00 in0.0 mm 0.05 in1.3 mm
05:00 PM 63.8°F17.7°C 61.7°F16.5°C 93% 1.2 mph SW1.9 kmh SW 4.6 mph7.4 kmh 30.07 in1018.3 mb - 0.00 in0.0 mm 0.05 in1.3 mm
05:10 PM 64.1°F17.8°C 62.0°F16.7°C 93% Calm Calm -- 30.07 in1018.3 mb - 0.00 in0.0 mm 0.05 in1.3 mm
05:20 PM 64.3°F17.9°C 62.2°F16.8°C 93% 2.3 mph SW3.7 kmh SW 4.6 mph7.4 kmh 30.07 in1018.3 mb - 0.00 in0.0 mm 0.05 in1.3 mm
05:30 PM 64.1°F17.8°C 61.7°F16.5°C 92% Calm Calm 2.3 mph3.7 kmh 30.07 in1018.3 mb - 0.00 in0.0 mm 0.05 in1.3 mm
05:40 PM 64.3°F17.9°C 61.9°F16.6°C 92% 2.3 mph WSW3.7 kmh WSW 5.8 mph9.3 kmh 30.07 in1018.3 mb - 0.00 in0.0 mm 0.05 in1.3 mm
05:50 PM 64.3°F17.9°C 62.0°F16.7°C 92% Calm Calm -- 30.07 in1018.3 mb - 0.00 in0.0 mm 0.05 in1.3 mm
06:00 PM 64.3°F17.9°C 62.0°F16.7°C 92% Calm Calm -- 30.07 in1018.3 mb - 0.00 in0.0 mm 0.05 in1.3 mm
06:10 PM 64.1°F17.8°C 61.4°F16.3°C 91% 1.2 mph SSW1.9 kmh SSW 3.5 mph5.6 kmh 30.07 in1018.3 mb - 0.01 in0.3 mm 0.06 in1.5 mm
06:20 PM 63.9°F17.7°C 61.2°F16.2°C 91% Calm Calm 2.3 mph3.7 kmh 30.07 in1018.3 mb - 0.00 in0.0 mm 0.06 in1.5 mm
06:30 PM 63.8°F17.7°C 61.1°F16.2°C 91% Calm Calm -- 30.08 in1018.6 mb - 0.00 in0.0 mm 0.06 in1.5 mm
06:40 PM 63.7°F17.6°C 61.3°F16.3°C 92% Calm Calm -- 30.08 in1018.6 mb - 0.00 in0.0 mm 0.06 in1.5 mm
06:50 PM 63.6°F17.6°C 61.2°F16.2°C 92% Calm Calm -- 30.08 in1018.6 mb - 0.00 in0.0 mm 0.06 in1.5 mm
07:00 PM 63.4°F17.4°C 60.7°F15.9°C 91% Calm Calm -- 30.08 in1018.6 mb - 0.00 in0.0 mm 0.06 in1.5 mm
07:10 PM 63.2°F17.3°C 60.5°F15.8°C 91% Calm Calm -- 30.08 in1018.6 mb - 0.00 in0.0 mm 0.06 in1.5 mm
07:20 PM 62.9°F17.2°C 60.3°F15.7°C 91% Calm Calm 3.5 mph5.6 kmh 30.09 in1019.0 mb - 0.00 in0.0 mm 0.06 in1.5 mm
07:30 PM 62.7°F17.1°C 60.0°F15.6°C 91% 2.3 mph N3.7 kmh N 3.5 mph5.6 kmh 30.09 in1019.0 mb - 0.00 in0.0 mm 0.06 in1.5 mm
07:40 PM 62.3°F16.8°C 59.9°F15.5°C 92% Calm Calm -- 30.09 in1019.0 mb - 0.00 in0.0 mm 0.06 in1.5 mm
07:50 PM 62.0°F16.7°C 59.6°F15.3°C 92% Calm Calm 1.2 mph1.9 kmh 30.09 in1019.0 mb - 0.00 in0.0 mm 0.06 in1.5 mm
08:00 PM 61.7°F16.5°C 59.4°F15.2°C 92% Calm Calm 3.5 mph5.6 kmh 30.09 in1019.0 mb - 0.00 in0.0 mm 0.06 in1.5 mm
08:10 PM 61.4°F16.3°C 59.4°F15.2°C 93% Calm Calm 2.3 mph3.7 kmh 30.09 in1019.0 mb - 0.00 in0.0 mm 0.06 in1.5 mm
08:20 PM 61.0°F16.1°C 59.0°F15.0°C 93% 1.2 mph NW1.9 kmh NW 5.8 mph9.3 kmh 30.10 in1019.3 mb - 0.00 in0.0 mm 0.06 in1.5 mm
08:30 PM 60.6°F15.9°C 58.6°F14.8°C 93% 1.2 mph NW1.9 kmh NW 4.6 mph7.4 kmh 30.10 in1019.3 mb - 0.00 in0.0 mm 0.06 in1.5 mm
08:40 PM 60.3°F15.7°C 58.6°F14.8°C 94% 1.2 mph NW1.9 kmh NW 4.6 mph7.4 kmh 30.11 in1019.6 mb - 0.00 in0.0 mm 0.06 in1.5 mm
08:50 PM 60.0°F15.6°C 58.3°F14.6°C 94% 1.2 mph NW1.9 kmh NW 3.5 mph5.6 kmh 30.11 in1019.6 mb - 0.01 in0.3 mm 0.06 in1.5 mm
09:00 PM 59.9°F15.5°C 58.2°F14.6°C 94% Calm Calm 2.3 mph3.7 kmh 30.11 in1019.6 mb - 0.01 in0.3 mm 0.07 in1.8 mm
09:10 PM 59.8°F15.4°C 58.4°F14.7°C 95% 2.3 mph NW3.7 kmh NW 4.6 mph7.4 kmh 30.11 in1019.6 mb - 0.00 in0.0 mm 0.07 in1.8 mm
09:20 PM 59.7°F15.4°C 58.3°F14.6°C 95% 2.3 mph NW3.7 kmh NW 5.8 mph9.3 kmh 30.11 in1019.6 mb - 0.00 in0.0 mm 0.07 in1.8 mm
09:30 PM 59.6°F15.3°C 58.2°F14.6°C 95% 1.2 mph NW1.9 kmh NW 3.5 mph5.6 kmh 30.11 in1019.6 mb - 0.00 in0.0 mm 0.07 in1.8 mm
09:40 PM 59.5°F15.3°C 58.1°F14.5°C 95% 1.2 mph NNW1.9 kmh NNW -- 30.11 in1019.6 mb - 0.00 in0.0 mm 0.07 in1.8 mm
09:50 PM 59.6°F15.3°C 58.1°F14.5°C 95% Calm Calm 4.6 mph7.4 kmh 30.11 in1019.6 mb - 0.00 in0.0 mm 0.07 in1.8 mm
10:00 PM 59.5°F15.3°C 58.1°F14.5°C 95% Calm Calm 3.5 mph5.6 kmh 30.11 in1019.6 mb - 0.00 in0.0 mm 0.07 in1.8 mm
10:10 PM 59.4°F15.2°C 58.0°F14.4°C 95% Calm Calm 2.3 mph3.7 kmh 30.11 in1019.6 mb - 0.00 in0.0 mm 0.07 in1.8 mm
10:20 PM 59.4°F15.2°C 58.0°F14.4°C 95% Calm Calm 1.2 mph1.9 kmh 30.11 in1019.6 mb - 0.00 in0.0 mm 0.07 in1.8 mm
10:30 PM 59.4°F15.2°C 57.9°F14.4°C 95% Calm Calm -- 30.11 in1019.6 mb - 0.00 in0.0 mm 0.07 in1.8 mm
10:40 PM 59.3°F15.2°C 57.9°F14.4°C 95% 2.3 mph NW3.7 kmh NW 4.6 mph7.4 kmh 30.11 in1019.6 mb - 0.00 in0.0 mm 0.07 in1.8 mm
10:50 PM 59.1°F15.1°C 57.7°F14.3°C 95% 2.3 mph NNW3.7 kmh NNW 3.5 mph5.6 kmh 30.11 in1019.6 mb - 0.00 in0.0 mm 0.07 in1.8 mm
11:00 PM 59.1°F15.1°C 58.0°F14.4°C 96% 1.2 mph NW1.9 kmh NW 3.5 mph5.6 kmh 30.11 in1019.6 mb - 0.00 in0.0 mm 0.09 in2.3 mm
11:10 PM 59.0°F15.0°C 57.9°F14.4°C 96% Calm Calm -- 30.11 in1019.6 mb - 0.00 in0.0 mm 0.09 in2.3 mm
11:20 PM 59.0°F15.0°C 57.6°F14.2°C 95% Calm Calm -- 30.10 in1019.3 mb - 0.00 in0.0 mm 0.09 in2.3 mm
11:30 PM 59.1°F15.1°C 58.0°F14.4°C 96% Calm Calm 3.5 mph5.6 kmh 30.10 in1019.3 mb - 0.00 in0.0 mm 0.09 in2.3 mm
11:40 PM 59.1°F15.1°C 58.0°F14.4°C 96% Calm Calm -- 30.10 in1019.3 mb - 0.00 in0.0 mm 0.09 in2.3 mm
11:50 PM 59.1°F15.1°C 58.0°F14.4°C 96% 2.3 mph SW3.7 kmh SW 3.5 mph5.6 kmh 30.10 in1019.3 mb - 0.00 in0.0 mm 0.09 in2.3 mm